Jefferson, OR

5:34 AM PST on November 28, 2014 (GMT -0800)
MesoWest Enchanted Way/South Salem (I-5 M OR US ODOT | Change Station
CLOSE
Current Station
Personal Weather Station
Location: Salem, OR
Elevation: 500 ft
Nearby Weather Stations
Active Advisory: Special Statement Active Notice: Record Report

Elev 500 ft 44.82 °N, 123.02 °W | Updated 34 minutes ago

Light Rain
Light Rain
51.0 °F
Feels Like 51.0 °F
N
3.0
Wind Variable Wind from SW
Gusts 4.0 mph

Today
High -- | Low -- °F
--% Chance of Precip.
Yesterday
High -- | Low -- °F
Precip. -- in
7:26 AM 4:33 PM
Waxing Crescent, 40% visible
Pressure 29.71 in
Visibility 9.0 miles
Clouds Few 1500 ft
Overcast 4000 ft
Dew Point 48.0 °F
Humidity 90%
Rainfall -999.00 in
Snow Depth Not available.
UV 0 out of 12
Pollen .30 out of 12
Air Quality Not available.
Flu Activity Not available.
METAR KSLE 281256Z AUTO 16010KT 9SM -RA FEW015 OVC040 12/10 A2971 RMK AO2 RAB16 SLP060 P0001 T01170100

More Conditions Fewer Conditions

Pressure 29.71 in
Visibility 9.0 miles
Clouds Few 1500 ft
Overcast 4000 ft
Dew Point 48.0 °F
Humidity 90%
Rainfall -999.00 in
Snow Depth Not available.
UV 0 out of 12
Pollen .30 out of 12
Air Quality Not available.
Flu Activity Not available.
METAR KSLE 281256Z AUTO 16010KT 9SM -RA FEW015 OVC040 12/10 A2971 RMK AO2 RAB16 SLP060 P0001 T01170100

More Conditions Fewer Conditions

10-Day Weather Forecast

Almanac

Astronomy

Nov. 28, 2014 Rise Set
Actual Time
Civil Twilight
Nautical Twilight
Astronomical Twilight
Moon
Length of Visible Light
Length of Day
Tomorrow will be .
, % of the Moon is Illuminated

Today's Extremes

State Highs State Lows

Community

WunderPhotos

Upload Photos

1,774,210 photos uploaded!

WunderBlogs® & News

Nearby

Air Quality

  Air Quality AQ Index Pollutant
Not available.

Snow Depth

Station Depth Elevation

Earthquake Activity

City Distance Mag. Time & Date
Minimum magnitude displayed is 2.5.

Coastal Water Temperatures

Place Temperature

Nearby Weather Stations